»·PEaware :: UAL711 KASE-KCOS

UAL711 :: KASE-KCOS

FLIGHT INFORMATION

Flight Status: Arrived
Operator:
United Airlines
More flights by this operator :: More flights under this callsign
Pilot: Sergei F. (8485)
Aircraft: BOEING 737-600
(B736)
More flights by this aircraft type
Origin: KASE Aspen-Pitkin Co/Sardy
United States
Destination: KCOS City Of Colorado Springs Mun
United States
More flights between these airports :: More routes between these airports
Route: LINDZ9 LINDZ KEEPP CLIMN MROON HBU DBRY5
File this flight plan on PilotEdge
Remarks:
Altitude:
(Current/Filed)
37,000ft
Speed:
(Current/Filed)
464kts
Departed: 25-Nov-23 09:05 PM
Arrived: 25-Nov-23 09:49 PM
Distance/Time
Traveled:
104nm/0:44
Distance/Time
To Go:
Arrived

Flight Plot

Page will automatically refresh every two minutes.

Flight plan parsing failed; only flown route is shown


Map Options




Map Legend


Flown Route
Filed Route
Departure Airport
Arrival Airport
Navaid (VOR, NDB)
Fix

Horizontal Profiles

Position Reports

Time Latitude Longitude Heading Altitude Ground
Speed
25-Nov-23 20:31 39.219035 -106.864509 72 7794ft 0kts
25-Nov-23 20:32 39.219035 -106.864509 72 7794ft 0kts
25-Nov-23 20:33 39.219035 -106.864509 72 7794ft 0kts
25-Nov-23 20:34 39.219035 -106.864509 72 7794ft 0kts
25-Nov-23 20:35 39.219035 -106.864509 72 7794ft 0kts
25-Nov-23 20:36 39.219035 -106.864509 72 7794ft 0kts
25-Nov-23 20:37 39.219035 -106.864509 72 7794ft 0kts
25-Nov-23 20:38 39.219035 -106.864509 72 7794ft 0kts
25-Nov-23 20:39 39.219035 -106.864509 72 7794ft 0kts
25-Nov-23 20:40 39.219035 -106.864509 72 7794ft 0kts
25-Nov-23 20:41 39.219035 -106.864509 72 7794ft 0kts
25-Nov-23 20:42 39.219035 -106.864509 72 7794ft 0kts
25-Nov-23 20:43 39.219035 -106.864509 72 7794ft 0kts
25-Nov-23 20:44 39.219035 -106.864509 72 7794ft 0kts
25-Nov-23 20:45 39.219035 -106.864509 72 7794ft 0kts
25-Nov-23 20:45 39.219035 -106.864509 72 7794ft 0kts
25-Nov-23 20:46 39.219034 -106.864511 72 7794ft 0kts
25-Nov-23 20:48 39.219034 -106.864511 72 7794ft 0kts
25-Nov-23 20:49 39.219034 -106.864511 72 7794ft 0kts
25-Nov-23 20:50 39.218945 -106.864858 72 7783ft 1kts
25-Nov-23 20:51 39.218857 -106.865404 105 7789ft 1kts
25-Nov-23 20:51 39.219090 -106.865706 157 7788ft 0kts
25-Nov-23 20:52 39.219090 -106.865706 157 7788ft 0kts
25-Nov-23 20:54 39.219090 -106.865706 157 7792ft 0kts
25-Nov-23 20:55 39.219090 -106.865706 157 7792ft 0kts
25-Nov-23 20:55 39.219090 -106.865706 157 7792ft 0kts
25-Nov-23 20:56 39.218773 -106.865551 160 7792ft 4kts
25-Nov-23 20:57 39.216627 -106.864534 159 7811ft 11kts
25-Nov-23 20:58 39.213335 -106.862959 158 7828ft 12kts
25-Nov-23 20:59 39.212231 -106.862501 182 7841ft 0kts
25-Nov-23 21:00 39.212231 -106.862501 182 7841ft 0kts
25-Nov-23 21:01 39.212231 -106.862501 182 7841ft 0kts
25-Nov-23 21:02 39.211974 -106.862614 213 7841ft 2kts
25-Nov-23 21:03 39.211882 -106.863456 336 7843ft 1kts
25-Nov-23 21:04 39.220815 -106.867714 339 7772ft 139kts
25-Nov-23 21:05 39.268012 -106.884095 332 9511ft 195kts
25-Nov-23 21:06 39.300971 -106.944031 282 11671ft 229kts
25-Nov-23 21:07 39.316475 -107.025384 281 14074ft 235kts
25-Nov-23 21:08 39.351426 -107.097217 305 15983ft 246kts
25-Nov-23 21:09 39.394524 -107.167401 309 18597ft 255kts
25-Nov-23 21:10 39.426670 -107.245727 248 20778ft 261kts
25-Nov-23 21:11 39.376123 -107.311630 211 21339ft 259kts
25-Nov-23 21:12 39.306337 -107.287951 143 21713ft 322kts
25-Nov-23 21:13 39.229594 -107.201249 143 22558ft 400kts
25-Nov-23 21:14 39.126651 -107.154742 175 24508ft 401kts
25-Nov-23 21:15 39.015923 -107.136691 175 25311ft 407kts
25-Nov-23 21:16 38.904112 -107.117465 175 25336ft 406kts
25-Nov-23 21:17 38.791888 -107.098056 176 25304ft 407kts
25-Nov-23 21:18 38.679037 -107.078631 176 25259ft 416kts
25-Nov-23 21:19 38.563585 -107.058788 176 25206ft 417kts
25-Nov-23 21:20 38.461558 -106.996472 125 25209ft 445kts
25-Nov-23 21:21 38.440880 -106.838220 95 25218ft 462kts
25-Nov-23 21:22 38.433514 -106.674717 95 25252ft 462kts
25-Nov-23 21:23 38.424873 -106.511392 96 25271ft 462kts
25-Nov-23 21:24 38.415954 -106.348163 96 25237ft 463kts
25-Nov-23 21:25 38.406764 -106.183789 96 25218ft 464kts
25-Nov-23 21:26 38.397399 -106.020225 96 25224ft 463kts
25-Nov-23 21:27 38.387743 -105.855825 96 25189ft 464kts
25-Nov-23 21:28 38.377886 -105.691836 96 25171ft 465kts
25-Nov-23 21:29 38.367765 -105.527391 95 25180ft 465kts
25-Nov-23 21:30 38.357531 -105.364596 95 25208ft 457kts
25-Nov-23 21:31 38.347276 -105.205131 95 23336ft 444kts
25-Nov-23 21:32 38.337266 -105.052572 95 20932ft 419kts
25-Nov-23 21:33 38.327537 -104.907498 95 18375ft 409kts
25-Nov-23 21:34 38.317915 -104.766169 95 16489ft 377kts
25-Nov-23 21:35 38.352050 -104.660406 26 15843ft 319kts
25-Nov-23 21:36 38.435863 -104.643618 357 14383ft 303kts
25-Nov-23 21:37 38.519426 -104.642657 358 12861ft 297kts
25-Nov-23 21:38 38.601352 -104.641035 358 11366ft 290kts
25-Nov-23 21:39 38.680371 -104.639306 358 10207ft 276kts
25-Nov-23 21:40 38.751401 -104.637701 358 9980ft 230kts
25-Nov-23 21:41 38.814053 -104.636351 358 10003ft 224kts
25-Nov-23 21:42 38.876476 -104.634985 358 9921ft 227kts
25-Nov-23 21:43 38.935596 -104.647318 305 9008ft 206kts
25-Nov-23 21:44 38.934806 -104.709850 222 8338ft 172kts
25-Nov-23 21:45 38.891063 -104.716267 180 7489ft 148kts
25-Nov-23 21:46 38.849754 -104.715937 179 6669ft 148kts
25-Nov-23 21:47 38.810888 -104.715916 180 6163ft 94kts
25-Nov-23 21:48 38.803622 -104.715106 89 6151ft 8kts
25-Nov-23 21:49 38.802799 -104.712181 90 6150ft 9kts
25-Nov-23 21:50 38.802791 -104.708354 89 6150ft 10kts
25-Nov-23 21:51 38.802791 -104.704878 91 6150ft 8kts
25-Nov-23 21:52 38.800769 -104.704116 110 6146ft 7kts
25-Nov-23 21:53 38.799854 -104.702421 134 6144ft 5kts
25-Nov-23 21:54 38.799426 -104.701533 121 6143ft 0kts
25-Nov-23 21:55 38.799426 -104.701533 121 6143ft 0kts
25-Nov-23 21:56 38.799426 -104.701533 121 6143ft 0kts
25-Nov-23 21:57 38.799426 -104.701533 121 6143ft 0kts
25-Nov-23 21:58 38.799426 -104.701533 121 6143ft 0kts
25-Nov-23 21:59 38.799426 -104.701533 121 6143ft 0kts
25-Nov-23 22:00 38.799426 -104.701533 121 6143ft 0kts
25-Nov-23 22:01 38.799426 -104.701533 121 6143ft 0kts

Navigation Log

Ident Type
Flight plan parsing failed, navigation log unavailable